Mandan, ND

9:53 AM CST on February 24, 2017 (GMT -0600)
Mandan

Weather History for KY19 - November, 2012

Change the Weather History Date:

Sunday, November 25, 2012

  Actual Average (KBIS) Record (KBIS)
Temperature  
Mean Temperature 16 °F -  
Max Temperature 28 °F 32 °F 71 °F (1960)
Min Temperature 5 °F 15 °F -20 °F (1977)
Degree Days  
Heating Degree Days 48    
Moisture  
Dew Point 17 °F    
Average Humidity 88    
Maximum Humidity 100    
Minimum Humidity 67    
Precipitation  
Precipitation 0.00 in - - ()
Sea Level Pressure  
Sea Level Pressure 30.08 in    
Wind  
Wind Speed 12 mph (NW)    
Max Wind Speed 21 mph    
Max Gust Speed 26 mph    
Visibility 10 miles    
Events Snow    
Averages and records for this station are not official NWS values.
T = Trace of Precipitation, MM = Missing Value Source: NWS Daily Summary

Daily Weather History Graph

Daily Weather History Graph

Search for Another Location

Airport or City:

Trip Planner

Search our weather history database for the weather conditions in past years. The results will help you decide how hot, cold, wet, or windy it might be!

Date:

Astronomy

Nov. 25, 2012 Rise Set
Actual Time 8:00 AM CST 5:00 PM CST
Civil Twilight 7:26 AM CST 5:34 PM CST
Nautical Twilight 6:49 AM CST 6:11 PM CST
Astronomical Twilight 6:12 AM CST 6:48 PM CST
Moon 3:24 PM CST (11/25) 5:09 AM CST (11/25)
Length of Visible Light 10h 07m
Length of Day
8h 59m
Waxing Gibbous, 93% of the Moon is Illuminated
Nov 25
Waxing Gibbous
Nov 28
Full
Dec 6
Last Quarter
Dec 13
New
Dec 19
First Quarter

Hourly Weather History & Observations

Time (CST) Temp. Windchill Dew Point Humidity Pressure Visibility Wind Dir Wind Speed Gust Speed Precip Events Conditions
12:15 AM 23.0 °F 10.1 °F 23.0 °F 100% 29.98 in 10.0 mi NW 15.0 mph - N/A   Overcast
12:35 AM 23.0 °F 9.2 °F 23.0 °F 100% 29.98 in 10.0 mi NW 17.3 mph - N/A   Overcast
12:55 AM 23.0 °F 12.4 °F 23.0 °F 100% 29.99 in 10.0 mi NW 10.4 mph - N/A   Overcast
1:15 AM 23.0 °F 11.1 °F 23.0 °F 100% 29.98 in 10.0 mi NNW 12.7 mph - N/A   Overcast
1:35 AM 23.0 °F 11.1 °F 23.0 °F 100% 29.98 in 10.0 mi NW 12.7 mph - N/A   Overcast
1:55 AM 23.0 °F 12.4 °F 23.0 °F 100% 29.98 in 10.0 mi NW 10.4 mph - N/A   Overcast
2:15 AM 24.8 °F 15.3 °F 24.8 °F 100% 29.97 in 10.0 mi WNW 9.2 mph - N/A   Overcast
2:35 AM 24.8 °F 17.9 °F 24.8 °F 100% 29.97 in 9.0 mi NW 5.8 mph - N/A   Overcast
2:55 AM 24.8 °F 15.3 °F 24.8 °F 100% 29.98 in 9.0 mi West 9.2 mph - N/A   Overcast
3:15 AM 24.8 °F 13.4 °F 24.8 °F 100% 30.00 in 7.0 mi West 12.7 mph - N/A   Overcast
3:35 AM 24.8 °F 14.0 °F 24.8 °F 100% 29.99 in 7.0 mi West 11.5 mph - N/A   Overcast
3:55 AM 24.8 °F 14.6 °F 23.0 °F 93% 29.98 in 10.0 mi West 10.4 mph - N/A   Overcast
4:15 AM 23.0 °F 12.4 °F 23.0 °F 100% 29.98 in 10.0 mi West 10.4 mph - N/A   Overcast
4:35 AM 23.0 °F 12.4 °F 23.0 °F 100% 29.98 in 10.0 mi West 10.4 mph - N/A   Mostly Cloudy
4:55 AM 23.0 °F 13.1 °F 23.0 °F 100% 29.98 in 10.0 mi West 9.2 mph - N/A   Overcast
5:15 AM 23.0 °F 14.7 °F 23.0 °F 100% 29.98 in 10.0 mi West 6.9 mph - N/A   Scattered Clouds
5:35 AM 21.2 °F 12.6 °F 21.2 °F 100% 29.97 in 10.0 mi WSW 6.9 mph - N/A   Clear
5:55 AM 21.2 °F 11.7 °F 21.2 °F 100% 29.96 in 10.0 mi WSW 8.1 mph - N/A   Clear
6:15 AM 19.4 °F 8.6 °F 19.4 °F 100% 29.97 in 10.0 mi WSW 9.2 mph - N/A   Clear
6:35 AM 21.2 °F 10.9 °F 21.2 °F 100% 29.97 in 10.0 mi WSW 9.2 mph - N/A   Clear
6:55 AM 21.2 °F 8.9 °F 21.2 °F 100% 29.97 in 10.0 mi WSW 12.7 mph 16.1 mph N/A   Clear
7:15 AM 23.0 °F 13.1 °F 23.0 °F 100% 29.96 in 10.0 mi WSW 9.2 mph - N/A   Clear
7:35 AM 23.0 °F 11.7 °F 23.0 °F 100% 29.98 in 10.0 mi West 11.5 mph - N/A   Clear
7:55 AM 23.0 °F 10.1 °F 23.0 °F 100% 29.98 in 10.0 mi West 15.0 mph - N/A   Clear
8:15 AM 21.2 °F 8.3 °F 21.2 °F 100% 29.98 in 10.0 mi West 13.8 mph - N/A   Clear
8:35 AM 21.2 °F 9.5 °F 21.2 °F 100% 29.99 in 10.0 mi West 11.5 mph 17.3 mph N/A   Clear
8:55 AM 24.8 °F 13.4 °F 24.8 °F 100% 30.01 in 10.0 mi NW 12.7 mph - N/A   Mostly Cloudy
9:15 AM 24.8 °F 14.0 °F 24.8 °F 100% 30.01 in 10.0 mi NW 11.5 mph - N/A   Overcast
9:35 AM 26.6 °F 16.8 °F 26.6 °F 100% 30.01 in 10.0 mi WNW 10.4 mph - N/A   Overcast
9:55 AM 26.6 °F 16.8 °F 26.6 °F 100% 30.02 in 10.0 mi NW 10.4 mph - N/A   Overcast
10:15 AM 28.4 °F 18.5 °F 26.6 °F 93% 30.03 in 10.0 mi NW 11.5 mph 17.3 mph N/A   Overcast
10:35 AM 28.4 °F 19.1 °F 26.6 °F 93% 30.03 in 10.0 mi NW 10.4 mph 18.4 mph N/A   Overcast
10:55 AM 28.4 °F 18.5 °F 26.6 °F 93% 30.04 in 10.0 mi NNW 11.5 mph - N/A   Overcast
11:15 AM 28.4 °F 15.4 °F 24.8 °F 86% 30.04 in 10.0 mi NNW 19.6 mph 24.2 mph N/A   Overcast
11:35 AM 26.6 °F 13.4 °F 23.0 °F 86% 30.04 in 10.0 mi NNW 18.4 mph 24.2 mph N/A   Overcast
11:55 AM 26.6 °F 14.7 °F 21.2 °F 80% 30.04 in 10.0 mi North 15.0 mph 25.3 mph N/A   Overcast
12:15 PM 24.8 °F 11.1 °F 19.4 °F 80% 30.05 in 10.0 mi NNW 18.4 mph 24.2 mph N/A   Overcast
12:35 PM 24.8 °F 10.3 °F 19.4 °F 80% 30.05 in 10.0 mi NNW 20.7 mph 26.5 mph N/A   Overcast
12:55 PM 24.8 °F 10.7 °F 17.6 °F 74% 30.05 in 10.0 mi NNW 19.6 mph 25.3 mph N/A   Overcast
1:15 PM 24.8 °F 12.4 °F 17.6 °F 74% 30.05 in 10.0 mi NW 15.0 mph 26.5 mph N/A   Mostly Cloudy
1:35 PM 24.8 °F 11.9 °F 15.8 °F 69% 30.05 in 10.0 mi NNW 16.1 mph 21.9 mph N/A   Mostly Cloudy
1:55 PM 24.8 °F 13.4 °F 15.8 °F 69% 30.05 in 10.0 mi NNW 12.7 mph 18.4 mph N/A   Mostly Cloudy
2:15 PM 23.0 °F 11.1 °F 15.8 °F 74% 30.06 in 10.0 mi North 12.7 mph - N/A   Overcast
2:35 PM 23.0 °F 11.1 °F 15.8 °F 74% 30.07 in 10.0 mi North 12.7 mph - N/A   Overcast
2:55 PM 23.0 °F 10.6 °F 15.8 °F 74% 30.06 in 10.0 mi NNW 13.8 mph 19.6 mph N/A   Mostly Cloudy
3:15 PM 23.0 °F 10.6 °F 14.0 °F 68% 30.07 in 10.0 mi North 13.8 mph - N/A   Overcast
3:35 PM 23.0 °F 10.6 °F 14.0 °F 68% 30.08 in 10.0 mi North 13.8 mph - N/A   Mostly Cloudy
3:55 PM 21.2 °F 8.9 °F 14.0 °F 74% 30.09 in 10.0 mi NNW 12.7 mph - N/A   Mostly Cloudy
4:15 PM 19.4 °F 5.0 °F 12.2 °F 74% 30.10 in 10.0 mi North 16.1 mph - N/A   Overcast
4:35 PM 19.4 °F 6.0 °F 12.2 °F 74% 30.11 in 10.0 mi North 13.8 mph - N/A   Mostly Cloudy
4:55 PM 19.4 °F 6.0 °F 12.2 °F 74% 30.12 in 10.0 mi North 13.8 mph - N/A   Mostly Cloudy
5:15 PM 17.6 °F 4.3 °F 10.4 °F 73% 30.13 in 10.0 mi North 12.7 mph - N/A   Mostly Cloudy
5:35 PM 17.6 °F 4.3 °F 10.4 °F 73% 30.13 in 10.0 mi NNW 12.7 mph - N/A   Mostly Cloudy
5:55 PM 15.8 °F 2.1 °F 10.4 °F 79% 30.14 in 10.0 mi NNW 12.7 mph - N/A Snow Light Snow
6:15 PM 17.6 °F 3.2 °F 10.4 °F 73% 30.16 in 10.0 mi North 15.0 mph 20.7 mph N/A   Mostly Cloudy
6:35 PM 15.8 °F 1.4 °F 6.8 °F 68% 30.17 in 10.0 mi North 13.8 mph - N/A   Mostly Cloudy
6:55 PM 14.0 °F 1.2 °F 5.0 °F 67% 30.19 in 10.0 mi NNW 10.4 mph - N/A   Mostly Cloudy
7:15 PM 12.2 °F -1.0 °F 5.0 °F 73% 30.20 in 10.0 mi NNW 10.4 mph - N/A   Scattered Clouds
7:35 PM 10.4 °F -1.5 °F 5.0 °F 79% 30.20 in 10.0 mi North 8.1 mph - N/A   Clear
7:55 PM 10.4 °F -2.4 °F 5.0 °F 79% 30.21 in 10.0 mi North 9.2 mph - N/A   Clear
8:15 PM 10.4 °F 0.8 °F 5.0 °F 79% 30.22 in 10.0 mi North 5.8 mph - N/A   Clear
8:35 PM 8.6 °F -1.3 °F 5.0 °F 85% 30.23 in 10.0 mi North 5.8 mph - N/A   Clear
8:55 PM 8.6 °F -6.3 °F 5.0 °F 85% 30.24 in 10.0 mi North 11.5 mph - N/A   Clear
9:15 PM 8.6 °F -4.7 °F 5.0 °F 85% 30.25 in 10.0 mi North 9.2 mph - N/A   Clear
9:35 PM 8.6 °F -2.6 °F 5.0 °F 85% 30.25 in 10.0 mi North 6.9 mph - N/A   Clear
9:55 PM 6.8 °F -3.5 °F 5.0 °F 92% 30.27 in 10.0 mi North 5.8 mph - N/A   Clear
10:15 PM 6.8 °F -2.0 °F 3.2 °F 85% 30.28 in 10.0 mi North 4.6 mph - N/A   Clear
10:35 PM 6.8 °F -2.0 °F 3.2 °F 85% 30.28 in 10.0 mi NNW 4.6 mph - N/A   Clear
10:55 PM 6.8 °F -3.5 °F 3.2 °F 85% 30.29 in 10.0 mi NW 5.8 mph - N/A   Clear
11:15 PM 6.8 °F -3.5 °F 3.2 °F 85% 30.29 in 10.0 mi NW 5.8 mph - N/A   Clear
11:35 PM 5.0 °F -8.1 °F 3.2 °F 92% 30.29 in 10.0 mi NW 8.1 mph - N/A   Clear
11:55 PM 5.0 °F -6.9 °F 1.4 °F 85% 30.30 in 10.0 mi NW 6.9 mph - N/A   Clear